Time;durP1;ratioP1;P1;durP2;ratioP2;P2;SDS_P1;SDS_P2;PMS_P1;PMS_P2;Temp;Humidity;BMP_temperature;BMP_pressure;BME280_temperature;BME280_humidity;BME280_pressure;Samples;Min_cycle;Max_cycle;Signal;HPM_P1;HPM_P2
2021/11/06 00:00:57;;;;;;;26.23;19.93;;;7.80;1.00;9.60;101753.00;;;;4938416;29;20528;-80
2021/11/06 00:03:26;;;;;;;24.10;21.07;;;7.70;1.00;9.60;101762.00;;;;4954624;29;20456;-83
2021/11/06 00:05:55;;;;;;;29.60;21.20;;;7.70;1.00;9.60;101748.00;;;;4950419;29;20516;-82
2021/11/06 00:08:23;;;;;;;26.40;21.83;;;7.70;1.00;9.60;101716.00;;;;4926147;29;20453;-81
2021/11/06 00:10:52;;;;;;;25.93;21.80;;;7.70;1.00;9.60;101727.00;;;;4938488;29;20512;-83
2021/11/06 00:13:21;;;;;;;26.03;21.40;;;7.60;1.00;9.60;101742.00;;;;4943208;29;20507;-82
2021/11/06 00:15:51;;;;;;;23.07;20.43;;;7.60;1.00;9.60;101741.00;;;;4940031;29;21104;-82
2021/11/06 00:18:19;;;;;;;27.90;22.37;;;7.60;1.00;9.60;101731.00;;;;4929540;29;20546;-85
2021/11/06 00:20:48;;;;;;;26.73;21.27;;;7.60;1.00;9.60;101758.00;;;;4940217;29;20563;-80
2021/11/06 00:23:16;;;;;;;24.60;20.67;;;7.60;1.00;9.60;101754.00;;;;4940625;29;20604;-81
2021/11/06 00:25:45;;;;;;;25.30;20.37;;;7.60;1.00;9.50;101752.00;;;;4939423;29;20531;-80
2021/11/06 00:28:13;;;;;;;23.77;20.97;;;7.60;1.00;9.60;101751.00;;;;4940502;28;20556;-81
2021/11/06 00:30:42;;;;;;;24.37;21.77;;;7.70;1.00;9.60;101748.00;;;;4942352;29;20488;-81
2021/11/06 00:33:12;;;;;;;23.87;20.53;;;7.70;1.00;9.60;101764.00;;;;4944438;29;20529;-83
2021/11/06 00:35:40;;;;;;;24.10;21.03;;;7.70;1.00;9.60;101762.00;;;;4940372;29;21000;-81
2021/11/06 00:38:09;;;;;;;27.73;22.20;;;7.70;1.00;9.50;101724.00;;;;4924681;29;20513;-81
2021/11/06 00:40:37;;;;;;;24.63;21.23;;;7.80;1.00;9.60;101706.00;;;;4927108;29;20579;-81
2021/11/06 00:43:06;;;;;;;24.30;21.57;;;7.70;1.00;9.60;101773.00;;;;4925523;29;20499;-81
2021/11/06 00:45:35;;;;;;;27.70;20.23;;;7.70;1.00;9.60;101752.00;;;;4941518;29;20449;-81
2021/11/06 00:48:04;;;;;;;24.40;20.50;;;7.70;1.00;9.60;101745.00;;;;4943962;29;20467;-81
2021/11/06 00:50:35;;;;;;;26.03;22.00;;;7.80;1.00;9.60;101750.00;;;;4945312;29;20547;-80
2021/11/06 00:53:04;;;;;;;26.77;20.23;;;7.80;1.00;9.70;101702.00;;;;4945424;29;20512;-81
2021/11/06 00:55:32;;;;;;;23.97;21.30;;;7.80;1.00;9.60;101756.00;;;;4951986;29;20484;-81
2021/11/06 00:58:01;;;;;;;23.80;21.23;;;7.90;1.00;9.50;101751.00;;;;4953092;29;20531;-82
2021/11/06 01:00:29;;;;;;;21.77;19.47;;;7.90;1.00;9.60;101736.00;;;;4947381;29;20560;-81
2021/11/06 01:02:58;;;;;;;26.57;21.30;;;8.00;1.00;9.60;101731.00;;;;4949160;29;20484;-81
2021/11/06 01:05:27;;;;;;;26.00;21.53;;;7.90;1.00;9.60;101614.00;;;;4956557;29;20478;-81
2021/11/06 01:07:58;;;;;;;24.00;21.40;;;7.90;1.00;9.60;101726.00;;;;4957558;29;20468;-81
2021/11/06 01:10:26;;;;;;;29.93;22.93;;;7.80;1.00;9.50;101734.00;;;;4935937;29;20560;-82
2021/11/06 01:12:55;;;;;;;24.77;21.10;;;7.70;1.00;9.50;101733.00;;;;4955954;29;20776;-81
2021/11/06 01:15:23;;;;;;;25.53;20.90;;;7.60;1.00;9.50;101726.00;;;;4930276;29;20983;-80
2021/11/06 01:17:52;;;;;;;24.40;21.47;;;7.70;1.00;9.50;101748.00;;;;4949127;29;20951;-81
2021/11/06 01:20:20;;;;;;;24.33;21.17;;;7.60;1.00;9.50;101726.00;;;;4947104;29;21026;-82
2021/11/06 01:22:49;;;;;;;26.53;22.73;;;7.60;1.00;9.40;101688.00;;;;4929076;29;20468;-82
2021/11/06 01:25:19;;;;;;;27.33;21.80;;;7.60;1.00;9.50;101712.00;;;;4945804;29;20537;-81
2021/11/06 01:27:48;;;;;;;32.53;23.57;;;7.50;1.00;9.30;101733.00;;;;4935963;29;20465;-81
2021/11/06 01:30:17;;;;;;;29.50;22.10;;;7.60;1.00;9.40;101724.00;;;;4944068;29;20953;-81
2021/11/06 01:32:49;;;;;;;27.27;23.00;;;7.60;1.00;9.20;101748.00;;;;4944663;29;20499;-82
2021/11/06 01:35:19;;;;;;;25.90;22.90;;;7.50;1.00;9.20;101739.00;;;;4942486;29;20484;-81
2021/11/06 01:37:48;;;;;;;27.30;22.90;;;7.40;1.00;9.20;101733.00;;;;4944999;29;20461;-81
2021/11/06 01:40:21;;;;;;;27.27;23.47;;;7.30;1.00;9.10;101751.00;;;;4944900;29;20508;-81
2021/11/06 01:42:50;;;;;;;26.27;22.77;;;7.30;1.00;9.00;101743.00;;;;4943669;29;20473;-80
2021/11/06 01:45:20;;;;;;;31.83;24.53;;;7.30;1.00;9.10;101723.00;;;;4940142;29;20472;-81
2021/11/06 01:47:49;;;;;;;25.60;22.50;;;7.40;1.00;9.20;101717.00;;;;4941183;29;20488;-81
2021/11/06 01:50:19;;;;;;;24.10;21.50;;;7.40;1.00;9.30;101750.00;;;;4946173;29;20492;-81
2021/11/06 01:52:48;;;;;;;27.20;22.47;;;7.50;1.00;9.30;101744.00;;;;4936731;29;20521;-80
2021/11/06 01:55:17;;;;;;;30.60;23.80;;;7.70;1.00;9.20;101723.00;;;;4952866;29;20432;-80
2021/11/06 01:57:48;;;;;;;27.63;23.03;;;7.80;1.00;9.40;101761.00;;;;4964500;29;20449;-81
2021/11/06 02:00:22;;;;;;;26.40;22.10;;;7.90;1.00;9.40;101755.00;;;;4964378;28;20489;-81
2021/11/06 02:02:51;;;;;;;30.17;24.60;;;8.00;1.00;9.40;101746.00;;;;4962383;28;20470;-80
2021/11/06 02:05:21;;;;;;;27.97;23.73;;;8.10;1.00;9.40;101748.00;;;;4962711;28;20432;-80
2021/11/06 02:07:49;;;;;;;29.60;22.03;;;8.10;1.00;9.40;101746.00;;;;4961877;29;20497;-80
2021/11/06 02:10:18;;;;;;;29.23;22.93;;;8.10;1.00;9.40;101754.00;;;;4967413;28;20484;-81
2021/11/06 02:12:49;;;;;;;25.27;22.47;;;8.10;1.00;9.30;101702.00;;;;4966507;28;20466;-80
2021/11/06 02:15:20;;;;;;;27.03;22.30;;;8.20;1.00;9.40;101678.00;;;;4966599;29;20436;-81
2021/11/06 02:17:50;;;;;;;27.50;23.53;;;8.10;1.00;9.30;101742.00;;;;4964037;29;20563;-80
2021/11/06 02:20:19;;;;;;;27.10;22.90;;;8.10;1.00;9.30;101665.00;;;;4961026;29;20510;-80
2021/11/06 02:22:50;;;;;;;26.37;22.37;;;8.10;1.00;9.30;101703.00;;;;4958413;29;20495;-80
2021/11/06 02:25:20;;;;;;;28.37;23.17;;;8.00;1.00;9.20;101731.00;;;;4939285;29;20552;-79
2021/11/06 02:28:08;;;;;;;30.27;23.57;;;8.00;1.00;9.20;101743.00;;;;4956103;29;20602;-80
2021/11/06 02:30:37;;;;;;;27.50;22.70;;;7.90;1.00;9.20;101742.00;;;;4940977;29;20473;-81
2021/11/06 02:33:06;;;;;;;29.13;23.03;;;7.80;1.00;9.20;101733.00;;;;4947694;29;20464;-81
2021/11/06 02:35:35;;;;;;;30.00;23.90;;;7.80;1.00;9.10;101730.00;;;;4948226;29;20452;-80
2021/11/06 02:38:04;;;;;;;28.70;23.20;;;7.80;1.00;9.10;101705.00;;;;4945300;29;20471;-80
2021/11/06 02:40:33;;;;;;;34.80;23.77;;;7.80;1.00;9.10;101726.00;;;;4945844;29;20568;-81
2021/11/06 02:43:02;;;;;;;30.50;25.43;;;7.80;1.00;8.90;101693.00;;;;4942724;29;20611;-80
2021/11/06 02:45:31;;;;;;;31.53;24.70;;;7.80;1.00;8.80;101728.00;;;;4943307;29;20558;-79
2021/11/06 02:47:59;;;;;;;31.50;25.30;;;7.70;1.00;9.00;101697.00;;;;4945017;29;20464;-80
2021/11/06 02:50:28;;;;;;;32.27;26.90;;;7.50;1.00;8.90;101735.00;;;;4943890;29;20482;-80
2021/11/06 02:52:58;;;;;;;32.07;25.83;;;7.40;1.00;8.90;101718.00;;;;4940543;29;20465;-78
2021/11/06 02:55:28;;;;;;;31.27;26.73;;;7.20;1.00;8.90;101730.00;;;;4941990;29;20477;-79
2021/11/06 02:57:57;;;;;;;34.77;27.50;;;7.20;1.00;8.70;101669.00;;;;4939257;29;20504;-80
2021/11/06 03:00:28;;;;;;;33.40;26.50;;;7.20;1.00;8.60;101736.00;;;;4940185;29;20508;-80
2021/11/06 03:02:57;;;;;;;36.73;26.87;;;7.40;1.00;8.60;101735.00;;;;4942496;29;20509;-79
2021/11/06 03:05:25;;;;;;;31.23;26.13;;;7.40;1.00;8.50;101731.00;;;;4925848;29;20540;-78
2021/11/06 03:07:58;;;;;;;28.13;24.57;;;7.40;1.00;8.50;101732.00;;;;4942060;29;20465;-78
2021/11/06 03:10:28;;;;;;;30.30;24.10;;;7.40;1.00;8.50;101712.00;;;;4942619;29;20495;-79
2021/11/06 03:12:58;;;;;;;29.20;25.27;;;7.30;1.00;8.50;101742.00;;;;4925431;29;21101;-79
2021/11/06 03:15:26;;;;;;;31.00;26.10;;;7.30;1.00;8.50;101738.00;;;;4926981;29;20449;-79
2021/11/06 03:17:55;;;;;;;33.87;26.03;;;7.20;1.00;8.50;101731.00;;;;4941575;29;21438;-80
2021/11/06 03:20:23;;;;;;;35.00;27.43;;;7.20;1.00;8.40;101739.00;;;;4939044;29;20522;-80
2021/11/06 03:22:57;;;;;;;39.40;30.97;;;7.00;1.00;8.40;101732.00;;;;4942460;29;20481;-80
2021/11/06 03:25:28;;;;;;;46.10;32.47;;;6.80;1.00;8.20;101738.00;;;;4940065;29;20469;-80
2021/11/06 03:27:57;;;;;;;39.93;31.60;;;6.70;1.00;8.10;101734.00;;;;4938837;29;20450;-79
2021/11/06 03:30:26;;;;;;;36.70;31.17;;;6.60;1.00;8.00;101741.00;;;;4938693;29;20483;-79
2021/11/06 03:32:56;;;;;;;43.20;33.50;;;6.50;1.00;7.90;101719.00;;;;4936383;29;20540;-80
2021/11/06 03:35:25;;;;;;;46.70;33.93;;;6.40;1.00;7.90;101753.00;;;;4920803;29;20456;-80
2021/11/06 03:37:58;;;;;;;38.93;32.60;;;6.40;1.00;7.90;101770.00;;;;4934263;29;20460;-79
2021/11/06 03:40:28;;;;;;;41.50;33.23;;;6.40;1.00;7.90;101669.00;;;;4936632;29;20485;-79
2021/11/06 03:42:57;;;;;;;41.00;32.80;;;6.40;1.00;7.90;101761.00;;;;4936230;29;20457;-80
2021/11/06 03:45:26;;;;;;;39.27;32.33;;;6.40;1.00;7.90;101772.00;;;;4920020;29;20858;-79
2021/11/06 03:47:54;;;;;;;39.87;31.60;;;6.50;1.00;7.80;101763.00;;;;4938880;29;20460;-79
2021/11/06 03:50:23;;;;;;;40.30;31.80;;;6.50;1.00;8.00;101773.00;;;;4936716;29;20504;-79
2021/11/06 03:52:51;;;;;;;42.33;32.37;;;6.50;1.00;8.00;101763.00;;;;4918644;29;21047;-78
2021/11/06 03:55:20;;;;;;;38.73;30.07;;;6.50;1.00;8.00;101753.00;;;;4932596;29;20839;-79
2021/11/06 03:57:50;;;;;;;37.77;30.00;;;6.50;1.00;8.10;101788.00;;;;4938616;29;20905;-79
2021/11/06 04:00:19;;;;;;;32.37;28.53;;;6.50;1.00;8.10;101775.00;;;;4937413;29;20511;-80
2021/11/06 04:02:49;;;;;;;35.53;29.20;;;6.50;1.00;8.00;101767.00;;;;4939063;29;20457;-79
2021/11/06 04:05:18;;;;;;;35.40;28.53;;;6.50;1.00;8.10;101721.00;;;;4935198;29;20492;-79
2021/11/06 04:07:46;;;;;;;33.20;28.83;;;6.50;1.00;8.10;101768.00;;;;4933761;29;20462;-80
2021/11/06 04:10:15;;;;;;;35.20;29.00;;;6.60;1.00;8.10;101766.00;;;;4936554;29;20476;-80
2021/11/06 04:12:45;;;;;;;32.17;28.10;;;6.50;1.00;8.20;101759.00;;;;4935921;29;20464;-79
2021/11/06 04:15:15;;;;;;;35.37;27.70;;;6.50;1.00;8.20;101737.00;;;;4938143;29;20544;-80
2021/11/06 04:17:44;;;;;;;35.80;28.80;;;6.60;1.00;8.20;101787.00;;;;4920909;29;21037;-79
2021/11/06 04:20:13;;;;;;;32.43;27.17;;;6.50;1.00;8.20;101740.00;;;;4936217;28;20480;-79
2021/11/06 04:22:42;;;;;;;37.70;27.87;;;6.50;1.00;8.20;101780.00;;;;4933782;29;20448;-79
2021/11/06 04:25:11;;;;;;;34.17;28.13;;;6.50;1.00;8.30;101729.00;;;;4932396;29;20473;-79
2021/11/06 04:27:39;;;;;;;32.23;26.70;;;6.50;1.00;8.30;101748.00;;;;4936269;29;20479;-79
2021/11/06 04:30:08;;;;;;;30.40;25.80;;;6.60;1.00;8.30;101761.00;;;;4919382;29;20571;-79
2021/11/06 04:32:38;;;;;;;33.53;26.27;;;6.60;1.00;8.30;101768.00;;;;4935368;29;20813;-79
2021/11/06 04:35:07;;;;;;;34.40;25.93;;;6.60;1.00;8.20;101773.00;;;;4933111;29;20479;-80
2021/11/06 04:37:36;;;;;;;31.73;27.27;;;6.50;1.00;8.20;101768.00;;;;4938591;29;20456;-79
2021/11/06 04:40:06;;;;;;;35.40;27.63;;;6.40;1.00;8.10;101769.00;;;;4941958;29;20476;-78
2021/11/06 04:42:35;;;;;;;33.60;26.73;;;6.40;1.00;8.00;101781.00;;;;4938634;29;20453;-80
2021/11/06 04:45:05;;;;;;;39.30;28.73;;;6.40;1.00;7.80;101735.00;;;;4944907;29;20580;-79
2021/11/06 04:47:34;;;;;;;35.10;29.83;;;6.30;1.00;7.70;101756.00;;;;4926384;29;20453;-80
2021/11/06 04:50:07;;;;;;;35.80;26.80;;;6.20;1.00;7.70;101751.00;;;;4944611;29;20479;-80
2021/11/06 04:52:36;;;;;;;39.83;29.90;;;6.10;1.00;7.60;101777.00;;;;4942445;29;20519;-80
2021/11/06 04:55:08;;;;;;;45.00;31.93;;;6.00;1.00;7.50;101782.00;;;;4939073;29;20456;-80
2021/11/06 04:57:37;;;;;;;38.20;30.47;;;6.00;1.00;7.50;101779.00;;;;4937581;29;21077;-81
2021/11/06 05:00:09;;;;;;;45.67;32.70;;;5.90;1.00;7.40;101747.00;;;;4939563;29;20496;-80
2021/11/06 05:02:38;;;;;;;37.77;29.00;;;5.90;1.00;7.40;101774.00;;;;4941584;29;20472;-79
2021/11/06 05:05:09;;;;;;;36.60;30.67;;;5.90;1.00;7.40;101749.00;;;;4940059;29;20481;-80
2021/11/06 05:07:37;;;;;;;37.50;28.33;;;5.80;1.00;7.30;101702.00;;;;4925145;29;20479;-79
2021/11/06 05:10:08;;;;;;;36.10;27.93;;;5.70;1.00;7.40;101771.00;;;;4941095;29;20499;-79
2021/11/06 05:12:37;;;;;;;35.87;28.77;;;5.70;1.00;7.30;101788.00;;;;4939648;29;20570;-79
2021/11/06 05:15:07;;;;;;;38.40;29.50;;;5.70;1.00;7.30;101780.00;;;;4938979;29;20448;-79
2021/11/06 05:17:36;;;;;;;32.57;26.87;;;5.60;1.00;7.30;101748.00;;;;4940650;29;20453;-80
2021/11/06 05:20:08;;;;;;;36.93;28.20;;;5.40;1.00;7.30;101775.00;;;;4939609;29;20472;-80
2021/11/06 05:22:37;;;;;;;34.43;27.20;;;5.40;1.00;7.30;101808.00;;;;4939035;29;20469;-80
2021/11/06 05:25:07;;;;;;;41.70;32.13;;;5.40;1.00;7.20;101727.00;;;;4937530;29;20555;-80
2021/11/06 05:27:36;;;;;;;40.47;29.00;;;5.40;1.00;7.10;101764.00;;;;4922935;29;20986;-78
2021/11/06 05:30:10;;;;;;;40.70;31.00;;;5.50;1.00;7.30;101754.00;;;;4938652;29;20534;-79
2021/11/06 05:32:39;;;;;;;36.73;28.20;;;5.50;1.00;7.30;101796.00;;;;4938281;29;20484;-80
2021/11/06 05:35:12;;;;;;;41.67;32.70;;;5.60;1.00;7.40;101798.00;;;;4939476;29;20466;-81
2021/11/06 05:37:40;;;;;;;37.63;30.07;;;5.70;1.00;7.40;101815.00;;;;4944751;29;20486;-79
2021/11/06 05:40:11;;;;;;;33.20;27.40;;;5.90;1.00;7.60;101789.00;;;;4927662;29;20506;-79
2021/11/06 05:42:41;;;;;;;32.23;27.87;;;5.90;1.00;7.70;101796.00;;;;4948303;29;20478;-80
2021/11/06 05:45:11;;;;;;;32.80;27.97;;;6.00;1.00;7.80;101775.00;;;;4946564;29;20493;-81
2021/11/06 05:47:39;;;;;;;32.50;26.90;;;6.10;1.00;7.90;101799.00;;;;4948750;28;20975;-80
2021/11/06 05:50:12;;;;;;;33.53;26.10;;;6.20;1.00;8.00;101795.00;;;;4949201;29;20485;-81
2021/11/06 05:52:41;;;;;;;37.23;28.90;;;6.30;1.00;8.10;101810.00;;;;4957534;29;20489;-82
2021/11/06 05:55:14;;;;;;;35.73;28.30;;;6.40;1.00;8.10;101819.00;;;;4954801;29;20462;-81
2021/11/06 05:57:43;;;;;;;35.30;28.37;;;6.30;1.00;8.20;101757.00;;;;4940472;29;21064;-79
2021/11/06 06:00:15;;;;;;;33.07;28.40;;;6.20;1.00;8.30;101782.00;;;;4939188;29;20560;-79
2021/11/06 06:02:44;;;;;;;30.37;26.90;;;6.30;1.00;8.30;101808.00;;;;4940475;29;20461;-79
2021/11/06 06:05:15;;;;;;;32.57;27.93;;;6.40;1.00;8.30;101825.00;;;;4940784;29;20572;-79
2021/11/06 06:07:45;;;;;;;33.80;27.00;;;6.40;1.00;8.40;101776.00;;;;4938341;29;20458;-79
2021/11/06 06:10:16;;;;;;;30.60;24.97;;;6.50;1.00;8.40;101745.00;;;;4939958;29;20472;-79
2021/11/06 06:12:50;;;;;;;34.23;26.87;;;6.60;1.00;8.50;101814.00;;;;4937952;29;20460;-79
2021/11/06 06:15:19;;;;;;;33.90;27.80;;;6.60;1.00;8.60;101792.00;;;;4925354;29;20456;-79
2021/11/06 06:17:48;;;;;;;33.97;27.67;;;6.70;1.00;8.60;101778.00;;;;4942350;29;20457;-80
2021/11/06 06:20:19;;;;;;;32.80;28.23;;;6.70;1.00;8.70;101804.00;;;;4943529;29;20469;-79
2021/11/06 06:22:48;;;;;;;36.40;28.50;;;6.80;1.00;8.60;101804.00;;;;4941311;29;20475;-79
2021/11/06 06:25:19;;;;;;;29.77;25.87;;;6.80;1.00;8.80;101847.00;;;;4934908;29;20556;-80
2021/11/06 06:27:47;;;;;;;31.23;25.30;;;6.80;1.00;8.80;101833.00;;;;4921750;29;20459;-79
2021/11/06 06:30:17;;;;;;;33.53;25.80;;;6.90;1.00;8.90;101838.00;;;;4938646;29;20484;-82
2021/11/06 06:32:47;;;;;;;32.17;25.10;;;7.00;1.00;9.00;101843.00;;;;4945274;29;20545;-80
2021/11/06 06:35:18;;;;;;;40.40;28.13;;;7.10;1.00;8.90;101821.00;;;;4941388;29;20457;-80
2021/11/06 06:37:47;;;;;;;38.53;27.77;;;7.10;1.00;9.00;101824.00;;;;4942957;29;21374;-82
2021/11/06 06:40:17;;;;;;;41.23;28.00;;;7.20;1.00;8.80;101841.00;;;;4940427;29;20473;-80
2021/11/06 06:42:46;;;;;;;34.17;26.87;;;7.20;1.00;9.10;101790.00;;;;4943175;29;20458;-80
2021/11/06 06:45:19;;;;;;;45.90;33.43;;;7.20;1.00;9.00;101837.00;;;;4938451;29;21074;-81
2021/11/06 06:47:48;;;;;;;46.97;33.67;;;7.30;1.00;9.10;101829.00;;;;4942138;29;20488;-80
2021/11/06 06:50:18;;;;;;;52.17;34.07;;;7.40;1.00;9.10;101840.00;;;;4940824;29;20635;-81
2021/11/06 06:52:47;;;;;;;60.30;37.20;;;7.40;1.00;9.10;101790.00;;;;4941851;29;20479;-80
2021/11/06 06:55:16;;;;;;;47.57;35.33;;;7.40;1.00;9.10;101819.00;;;;4935327;29;20465;-80
2021/11/06 06:57:44;;;;;;;58.40;35.17;;;7.50;1.00;9.20;101751.00;;;;4940497;29;21024;-80
2021/11/06 07:00:15;;;;;;;58.40;34.20;;;7.50;1.00;9.10;101841.00;;;;4940416;29;20487;-80
2021/11/06 07:02:43;;;;;;;42.17;30.60;;;7.60;1.00;9.10;101804.00;;;;4943386;29;20476;-80
2021/11/06 07:05:12;;;;;;;44.73;31.40;;;7.60;1.00;9.20;101839.00;;;;4945073;29;20476;-80
2021/11/06 07:07:42;;;;;;;47.30;33.57;;;7.60;1.00;9.20;101847.00;;;;4944110;29;20453;-80
2021/11/06 07:10:12;;;;;;;40.73;32.57;;;7.70;1.00;9.30;101790.00;;;;4943568;29;20568;-80
2021/11/06 07:12:41;;;;;;;41.53;31.40;;;7.70;1.00;9.30;101804.00;;;;4928231;29;20493;-81
2021/11/06 07:15:10;;;;;;;38.60;31.40;;;7.80;1.00;9.40;101835.00;;;;4940558;29;20462;-82
2021/11/06 07:17:39;;;;;;;42.63;32.90;;;7.80;1.00;9.40;101849.00;;;;4951164;29;20503;-81
2021/11/06 07:20:10;;;;;;;45.20;33.10;;;7.90;1.00;9.50;101837.00;;;;4950821;29;20564;-82
2021/11/06 07:22:38;;;;;;;39.03;30.67;;;7.90;1.00;9.60;101795.00;;;;4953713;29;20503;-81
2021/11/06 07:25:09;;;;;;;40.70;30.53;;;8.00;1.00;9.70;101852.00;;;;4948076;29;20512;-81
2021/11/06 07:27:40;;;;;;;37.43;29.27;;;8.10;1.00;9.80;101883.00;;;;4946079;29;21125;-82
2021/11/06 07:30:11;;;;;;;38.10;28.20;;;8.10;1.00;9.90;101879.00;;;;4938273;29;20491;-80
2021/11/06 07:32:40;;;;;;;36.97;30.17;;;8.20;1.00;9.90;101843.00;;;;4940534;29;20465;-80
2021/11/06 07:35:09;;;;;;;40.40;28.77;;;8.30;1.00;9.90;101860.00;;;;4941015;29;20595;-81
2021/11/06 07:37:37;;;;;;;33.10;25.60;;;8.30;1.00;9.90;101876.00;;;;4939037;29;20486;-79
2021/11/06 07:40:11;;;;;;;51.30;33.33;;;8.20;1.00;9.60;101880.00;;;;4940562;29;20547;-79
2021/11/06 07:42:41;;;;;;;67.10;36.27;;;8.10;1.00;9.60;101836.00;;;;4937378;29;21018;-80
2021/11/06 07:45:13;;;;;;;62.03;36.20;;;8.00;1.00;9.60;101889.00;;;;4938447;29;20475;-81
2021/11/06 07:47:42;;;;;;;56.00;35.93;;;7.90;1.00;9.60;101890.00;;;;4940608;29;20449;-80
2021/11/06 07:50:13;;;;;;;50.93;35.13;;;7.90;1.00;9.60;101869.00;;;;4940747;29;20487;-80
2021/11/06 07:52:41;;;;;;;45.03;33.03;;;8.00;1.00;9.60;101840.00;;;;4936371;29;20552;-80
2021/11/06 07:55:11;;;;;;;55.73;36.10;;;8.00;1.00;9.60;101886.00;;;;4934476;29;20453;-80
2021/11/06 07:57:40;;;;;;;48.13;34.47;;;8.10;1.00;9.50;101894.00;;;;4937975;29;20468;-80
2021/11/06 08:00:13;;;;;;;44.20;34.20;;;8.00;1.00;9.50;101831.00;;;;4934530;29;20576;-81
2021/11/06 08:02:42;;;;;;;45.67;33.43;;;8.00;1.00;9.40;101855.00;;;;4938448;29;20456;-80
2021/11/06 08:05:13;;;;;;;46.20;31.87;;;8.00;1.00;9.50;101877.00;;;;4937191;29;20452;-80
2021/11/06 08:07:42;;;;;;;41.80;32.43;;;8.10;1.00;9.60;101897.00;;;;4940013;29;20543;-79
2021/11/06 08:10:13;;;;;;;39.67;31.80;;;8.00;1.00;9.60;101881.00;;;;4937913;29;20487;-81
2021/11/06 08:12:42;;;;;;;43.97;32.57;;;8.00;1.00;9.70;101899.00;;;;4942980;29;20467;-80
2021/11/06 08:15:14;;;;;;;39.23;29.53;;;8.10;1.00;9.70;101837.00;;;;4938510;29;20489;-79
2021/11/06 08:17:44;;;;;;;47.33;31.17;;;8.10;1.00;9.70;101840.00;;;;4943902;29;20452;-80
2021/11/06 08:20:13;;;;;;;41.80;28.70;;;8.10;1.00;9.60;101870.00;;;;4926621;29;21216;-79
2021/11/06 08:22:42;;;;;;;49.03;31.13;;;8.00;1.00;9.40;101803.00;;;;4944168;29;20947;-81
2021/11/06 08:25:15;;;;;;;45.13;31.47;;;7.90;1.00;9.30;101922.00;;;;4943158;29;20471;-81
2021/11/06 08:27:45;;;;;;;37.40;29.30;;;7.80;1.00;9.50;101874.00;;;;4942982;29;21172;-80
2021/11/06 08:30:15;;;;;;;39.90;31.70;;;7.90;1.00;9.50;101885.00;;;;4939306;29;20854;-79
2021/11/06 08:32:44;;;;;;;33.03;27.93;;;7.90;1.00;9.70;101851.00;;;;4940641;29;20548;-80
2021/11/06 08:35:13;;;;;;;36.90;28.90;;;8.00;1.00;9.70;101885.00;;;;4929625;29;20537;-79
2021/11/06 08:37:43;;;;;;;35.33;26.77;;;8.10;1.00;9.80;101879.00;;;;4944470;29;20482;-83
2021/11/06 08:40:14;;;;;;;33.83;27.67;;;8.20;1.00;10.00;101904.00;;;;4945466;29;20493;-79
2021/11/06 08:42:43;;;;;;;30.30;27.00;;;8.30;1.00;10.00;101848.00;;;;4943518;29;20524;-80
2021/11/06 08:45:14;;;;;;;31.97;27.00;;;8.30;1.00;9.80;101885.00;;;;4946026;29;20572;-80
2021/11/06 08:47:43;;;;;;;33.23;27.73;;;8.30;1.00;9.90;101889.00;;;;4945243;29;20532;-80
2021/11/06 08:50:15;;;;;;;30.67;27.20;;;8.30;1.00;10.00;101855.00;;;;4949516;29;21301;-82
2021/11/06 08:52:44;;;;;;;33.10;26.53;;;8.40;1.00;9.90;101898.00;;;;4950177;29;20473;-82
2021/11/06 08:55:15;;;;;;;31.80;25.50;;;8.40;1.00;9.90;101896.00;;;;4948612;29;20469;-81
2021/11/06 08:57:44;;;;;;;28.03;25.00;;;8.40;1.00;9.80;101893.00;;;;4946673;29;20469;-81
2021/11/06 09:00:18;;;;;;;32.17;26.27;;;8.30;1.00;9.70;101893.00;;;;4945152;29;20552;-80
2021/11/06 09:02:47;;;;;;;29.20;25.23;;;8.40;1.00;10.00;101875.00;;;;4945647;29;20452;-81
2021/11/06 09:05:16;;;;;;;30.97;27.33;;;8.40;1.00;9.90;101830.00;;;;4945929;29;20547;-79
2021/11/06 09:07:47;;;;;;;29.60;25.60;;;8.40;1.00;10.00;101881.00;;;;4948528;29;20480;-80
2021/11/06 09:10:20;;;;;;;34.97;28.20;;;8.50;1.00;10.10;101848.00;;;;4944940;29;20476;-80
2021/11/06 09:12:51;;;;;;;31.70;26.80;;;8.50;1.00;10.10;101904.00;;;;4945413;29;20460;-82
2021/11/06 09:15:21;;;;;;;30.70;25.90;;;8.50;1.00;10.20;101903.00;;;;4929751;29;20454;-81
2021/11/06 09:17:51;;;;;;;30.00;24.70;;;8.70;1.00;10.50;101876.00;;;;4943712;29;20467;-82
2021/11/06 09:20:21;;;;;;;30.33;23.33;;;8.90;1.00;10.80;101843.00;;;;4946960;29;20495;-82
2021/11/06 09:22:51;;;;;;;29.00;23.57;;;9.00;1.00;10.80;101890.00;;;;4943972;28;20468;-79
2021/11/06 09:25:23;;;;;;;29.87;21.90;;;9.20;1.00;10.80;101910.00;;;;4942991;29;20491;-80
2021/11/06 09:27:52;;;;;;;26.93;21.67;;;9.20;1.00;10.70;101901.00;;;;4945933;29;20476;-81
2021/11/06 09:30:20;;;;;;;27.97;21.17;;;9.20;1.00;10.60;101914.00;;;;4947125;29;20476;-81
2021/11/06 09:32:49;;;;;;;24.43;19.33;;;9.10;1.00;10.60;101926.00;;;;4944592;29;21006;-81
2021/11/06 09:35:18;;;;;;;24.90;20.03;;;9.10;1.00;10.70;101896.00;;;;4947819;29;20464;-80
2021/11/06 09:37:46;;;;;;;25.53;22.10;;;9.20;1.00;11.10;101871.00;;;;4946963;29;20526;-82
2021/11/06 09:40:16;;;;;;;25.57;22.00;;;9.40;1.00;11.30;101893.00;;;;4947291;29;20555;-81
2021/11/06 09:42:46;;;;;;;29.53;23.27;;;9.60;1.00;11.40;101891.00;;;;4947977;29;21185;-83
2021/11/06 09:45:17;;;;;;;30.90;22.53;;;9.70;1.00;11.60;101911.00;;;;4954050;29;20456;-82
2021/11/06 09:47:45;;;;;;;34.90;24.57;;;9.80;1.00;11.20;101885.00;;;;4954431;29;20488;-79
2021/11/06 09:50:17;;;;;;;32.40;25.60;;;10.00;1.00;11.40;101912.00;;;;4951487;29;20480;-79
2021/11/06 09:52:47;;;;;;;31.27;25.90;;;9.80;1.00;11.60;101884.00;;;;4954773;29;20489;-81
2021/11/06 09:55:19;;;;;;;29.00;23.57;;;9.90;1.00;11.80;101916.00;;;;4948441;29;20464;-82
2021/11/06 09:57:50;;;;;;;28.70;23.00;;;10.00;1.00;11.70;101936.00;;;;4948528;29;20461;-80
2021/11/06 10:00:19;;;;;;;25.00;20.80;;;10.20;1.00;11.80;101909.00;;;;4949623;29;20487;-80
2021/11/06 10:02:50;;;;;;;30.83;22.37;;;10.10;1.00;11.70;101843.00;;;;4948603;29;20464;-79
2021/11/06 10:05:18;;;;;;;28.13;21.60;;;10.00;1.00;11.70;101911.00;;;;4950411;29;20463;-83
2021/11/06 10:07:47;;;;;;;28.70;22.07;;;10.00;1.00;11.30;101846.00;;;;4947226;29;20487;-80
2021/11/06 10:10:17;;;;;;;30.63;21.13;;;10.00;1.00;11.80;101873.00;;;;4944523;29;20501;-82
2021/11/06 10:12:53;;;;;;;23.10;20.60;;;10.20;1.00;12.10;101900.00;;;;4945523;29;20552;-81
2021/11/06 10:15:25;;;;;;;23.13;20.63;;;10.40;1.00;11.90;101915.00;;;;4947649;29;20456;-82
2021/11/06 10:17:53;;;;;;;24.13;19.53;;;10.40;1.00;11.80;101894.00;;;;4946108;29;20540;-80
2021/11/06 10:20:27;;;;;;;24.40;20.70;;;10.20;1.00;11.60;101912.00;;;;4947666;29;20488;-81
2021/11/06 10:23:01;;;;;;;21.40;19.10;;;10.20;1.00;11.70;101751.00;;;;4949494;29;20514;-80
2021/11/06 10:25:34;;;;;;;20.10;17.90;;;10.20;1.00;11.70;101851.00;;;;4945863;29;20475;-80
2021/11/06 10:28:07;;;;;;;23.20;18.87;;;10.20;1.00;12.10;101880.00;;;;4947155;29;20489;-80
2021/11/06 10:30:39;;;;;;;20.57;18.10;;;10.50;1.00;12.30;101883.00;;;;4950811;29;20682;-80
2021/11/06 10:33:12;;;;;;;20.40;18.27;;;10.60;1.00;12.60;101871.00;;;;4954000;29;20493;-80
2021/11/06 10:35:44;;;;;;;20.40;17.37;;;10.80;1.00;12.40;101887.00;;;;4937262;29;20468;-79
2021/11/06 10:38:16;;;;;;;22.23;18.33;;;10.80;1.00;12.40;101848.00;;;;4951184;29;20461;-80
2021/11/06 10:40:48;;;;;;;18.93;16.93;;;10.70;1.00;12.60;101875.00;;;;4949640;29;20477;-81
2021/11/06 10:43:22;;;;;;;19.80;17.90;;;11.00;1.00;12.20;101862.00;;;;4949189;29;20492;-80
2021/11/06 10:45:54;;;;;;;21.93;18.53;;;10.80;1.00;12.30;101860.00;;;;4954440;29;20457;-79
2021/11/06 10:48:28;;;;;;;19.90;17.80;;;10.80;1.00;12.00;101858.00;;;;4946031;29;20576;-80
2021/11/06 10:51:02;;;;;;;20.80;18.60;;;10.70;1.00;12.10;101835.00;;;;4949589;29;20473;-80
2021/11/06 10:53:50;;;;;;;19.27;17.27;;;10.60;1.00;12.00;101850.00;;;;4945534;29;20469;-79
2021/11/06 10:56:35;;;;;;;18.33;16.47;;;10.80;1.00;12.40;101837.00;;;;4943019;29;20468;-80
2021/11/06 10:59:15;;;;;;;19.20;17.30;;;11.00;1.00;12.60;101834.00;;;;4940425;29;20471;-80
2021/11/06 11:01:46;;;;;;;18.10;16.23;;;11.10;1.00;12.70;101842.00;;;;4942911;29;20555;-81
2021/11/06 11:04:18;;;;;;;18.60;16.70;;;11.30;1.00;12.50;101857.00;;;;4941467;29;20468;-79